Archival Weather

NSFA McMurdo Sound

NSFA McMurdo Sound, Antarctica (NZCM)

Report from: Saturday, February 24, 2024 10:55 PM UTC
Current time: Friday, June 14, 2024 11:22 AM UTC

Current weather – Weather history – Daily summaries
Weather forecast

Temperature-11.3°C (11.7°F)
Wind chill-18.3°C (-0.9°F)
Dew point-21.2°C (-6.2°F)
Winds 8 kts (4.1 m/s, 9.2 mph) East-Northeast (70°)
Visibility6.2 mi. (10 km)
Clouds Sky clear
Altimeter29.14 in.Hg (987 mB)
Relative humidity44 %
Density altitude-5,756 ft. (-1,755 m)
Sea-level pressure108.7 kPa (1087 mB, 32.11 in.Hg)
Remarks Fully automated report
Automated weather observing station with precipitation discriminator
Flight conditions Visual Meteorological Conditions
Raw dataNZCM 242255Z AUTO 07008KT 9999 CLR M11/M21 A2914 RMK AO2 SLP872 T11131212
An error has occurred. This application may no longer respond until reloaded. Reload 🗙